Time;durP1;ratioP1;P1;durP2;ratioP2;P2;SDS_P1;SDS_P2;PMS_P1;PMS_P2;Temp;Humidity;BMP_temperature;BMP_pressure;BME280_temperature;BME280_humidity;BME280_pressure;Samples;Min_cycle;Max_cycle;Signal;HPM_P1;HPM_P2
2021/08/04 00:00:26;;;;;;;3.10;2.00;;;13.60;99.90;;;;;;5052765;28;20193;-67
2021/08/04 00:02:52;;;;;;;2.47;2.30;;;13.60;99.90;;;;;;5052839;28;20419;-68
2021/08/04 00:05:18;;;;;;;2.20;2.00;;;13.40;99.90;;;;;;5054605;28;20498;-66
2021/08/04 00:07:44;;;;;;;6.07;1.80;;;13.40;99.90;;;;;;5056448;28;20420;-68
2021/08/04 00:10:10;;;;;;;3.63;1.93;;;13.40;99.90;;;;;;5056943;28;20519;-67
2021/08/04 00:12:36;;;;;;;2.40;2.20;;;13.50;99.90;;;;;;5056465;28;20573;-66
2021/08/04 00:15:03;;;;;;;3.37;2.43;;;13.50;99.90;;;;;;5056282;28;20448;-68
2021/08/04 00:17:29;;;;;;;2.30;2.00;;;13.60;99.90;;;;;;5056500;28;20265;-68
2021/08/04 00:19:55;;;;;;;1.60;1.47;;;13.60;99.90;;;;;;5056495;28;20880;-67
2021/08/04 00:22:21;;;;;;;3.70;2.20;;;13.50;99.90;;;;;;5056304;28;20419;-68
2021/08/04 00:24:47;;;;;;;4.53;1.80;;;13.50;99.90;;;;;;5056310;28;20182;-66
2021/08/04 00:27:12;;;;;;;4.07;2.10;;;13.40;99.90;;;;;;5056506;28;20166;-68
2021/08/04 00:29:38;;;;;;;2.70;2.30;;;13.50;99.90;;;;;;5056172;28;20691;-67
2021/08/04 00:32:04;;;;;;;2.40;2.20;;;13.50;99.90;;;;;;5056176;28;20178;-67
2021/08/04 00:34:30;;;;;;;2.17;1.97;;;13.60;99.90;;;;;;5055880;28;20213;-67
2021/08/04 00:36:55;;;;;;;2.77;2.20;;;13.60;99.90;;;;;;5056193;28;20401;-66
2021/08/04 00:39:21;;;;;;;2.17;1.97;;;13.60;99.90;;;;;;5056237;28;20685;-68
2021/08/04 00:41:46;;;;;;;1.97;1.80;;;13.60;99.90;;;;;;5055931;28;20693;-67
2021/08/04 00:44:12;;;;;;;2.73;2.20;;;13.60;99.90;;;;;;5055879;28;20650;-67
2021/08/04 00:46:42;;;;;;;3.40;2.40;;;13.70;99.90;;;;;;5056130;28;20671;-68
2021/08/04 00:49:10;;;;;;;3.10;2.27;;;13.70;99.90;;;;;;5055960;28;20232;-68
2021/08/04 00:51:36;;;;;;;4.13;2.47;;;13.70;99.90;;;;;;5055866;28;20433;-68
2021/08/04 00:54:04;;;;;;;3.30;2.20;;;13.60;99.90;;;;;;5055510;28;20533;-67
2021/08/04 00:56:29;;;;;;;2.40;2.20;;;13.40;99.90;;;;;;5055728;28;20173;-68
2021/08/04 00:58:55;;;;;;;2.80;2.60;;;13.40;99.90;;;;;;5055682;28;20466;-68
2021/08/04 01:01:25;;;;;;;3.70;2.60;;;13.30;99.90;;;;;;5055533;28;20273;-67
2021/08/04 01:04:07;;;;;;;2.80;2.57;;;13.20;99.90;;;;;;5055502;28;20193;-65
2021/08/04 01:06:45;;;;;;;1.97;1.73;;;13.30;99.90;;;;;;5055859;28;20849;-67
2021/08/04 01:09:12;;;;;;;2.60;1.90;;;13.30;99.90;;;;;;5055537;28;20533;-68
2021/08/04 01:11:40;;;;;;;4.00;2.00;;;13.30;99.90;;;;;;5055443;28;20797;-68
2021/08/04 01:14:11;;;;;;;2.20;1.77;;;13.30;99.90;;;;;;5055308;28;20510;-66
2021/08/04 01:16:40;;;;;;;3.17;2.50;;;13.50;99.90;;;;;;5054457;28;20400;-66
2021/08/04 01:19:28;;;;;;;3.27;2.10;;;13.50;99.90;;;;;;5055435;28;20400;-67
2021/08/04 01:22:08;;;;;;;2.90;2.10;;;13.50;99.90;;;;;;5055252;28;20419;-66
2021/08/04 01:25:04;;;;;;;2.97;2.67;;;13.60;99.90;;;;;;5055016;28;20412;-66
2021/08/04 01:27:30;;;;;;;6.20;2.73;;;13.60;99.90;;;;;;5055363;28;20411;-68
2021/08/04 01:29:58;;;;;;;1.60;1.50;;;13.70;99.90;;;;;;5053739;28;20740;-68
2021/08/04 01:32:27;;;;;;;3.10;2.17;;;13.60;99.90;;;;;;5055036;28;20417;-67
2021/08/04 01:34:54;;;;;;;2.73;2.10;;;13.60;99.90;;;;;;5054705;28;20463;-66
2021/08/04 01:37:22;;;;;;;2.37;2.17;;;13.50;99.90;;;;;;5055083;28;20448;-67
2021/08/04 01:39:49;;;;;;;3.20;2.77;;;13.50;99.90;;;;;;5054932;28;20473;-67
2021/08/04 01:42:16;;;;;;;2.33;2.13;;;13.50;99.90;;;;;;5054963;28;20972;-68
2021/08/04 01:44:43;;;;;;;2.53;2.33;;;13.50;99.90;;;;;;5054660;28;20952;-66
2021/08/04 01:47:10;;;;;;;2.97;2.67;;;13.60;99.90;;;;;;5054863;28;20953;-68
2021/08/04 01:49:36;;;;;;;2.40;1.97;;;13.60;99.90;;;;;;5054802;28;20423;-66
2021/08/04 01:52:03;;;;;;;2.57;2.30;;;13.60;99.90;;;;;;5054584;28;20420;-68
2021/08/04 01:54:29;;;;;;;2.77;1.90;;;13.70;99.90;;;;;;5054409;28;20464;-66
2021/08/04 01:56:55;;;;;;;2.27;2.07;;;13.70;99.90;;;;;;5054591;28;20405;-67
2021/08/04 01:59:22;;;;;;;3.80;2.37;;;13.70;99.90;;;;;;5054714;28;20541;-66
2021/08/04 02:01:48;;;;;;;2.80;2.13;;;13.70;99.90;;;;;;5054595;28;20272;-66
2021/08/04 02:04:13;;;;;;;2.20;2.00;;;13.80;99.90;;;;;;5054296;28;20922;-67
2021/08/04 02:06:58;;;;;;;4.30;2.30;;;13.70;99.90;;;;;;5054436;28;20661;-66
2021/08/04 02:09:43;;;;;;;3.57;2.30;;;13.70;99.90;;;;;;5054236;28;20623;-68
2021/08/04 02:12:11;;;;;;;3.77;2.63;;;13.70;99.90;;;;;;5054351;28;20412;-67
2021/08/04 02:14:57;;;;;;;3.40;2.10;;;13.70;99.90;;;;;;5053981;28;20467;-68
2021/08/04 02:17:34;;;;;;;2.47;2.27;;;13.70;99.90;;;;;;5054415;28;20785;-66
2021/08/04 02:20:26;;;;;;;5.60;2.27;;;13.60;99.90;;;;;;5054281;28;20427;-66
2021/08/04 02:23:01;;;;;;;4.10;2.40;;;13.60;99.90;;;;;;5054120;28;20385;-68
2021/08/04 02:25:34;;;;;;;3.20;2.30;;;13.60;99.90;;;;;;5053786;28;20402;-66
2021/08/04 02:28:02;;;;;;;4.27;2.60;;;13.60;99.90;;;;;;5054050;28;20753;-68
2021/08/04 02:30:30;;;;;;;3.10;1.90;;;13.60;99.90;;;;;;5053887;28;20453;-69
2021/08/04 02:32:56;;;;;;;2.90;2.50;;;13.60;99.90;;;;;;5053767;28;20401;-67
2021/08/04 02:35:22;;;;;;;3.53;2.60;;;13.50;99.90;;;;;;5053831;28;20449;-67
2021/08/04 02:37:48;;;;;;;2.40;2.20;;;13.50;99.90;;;;;;5053966;28;20253;-67
2021/08/04 02:40:15;;;;;;;4.00;3.60;;;13.50;99.90;;;;;;5053616;28;20424;-67
2021/08/04 02:42:42;;;;;;;2.70;1.80;;;13.60;99.90;;;;;;5053718;28;20408;-68
2021/08/04 02:45:08;;;;;;;2.50;2.10;;;13.50;99.90;;;;;;5053614;28;20407;-68
2021/08/04 02:47:34;;;;;;;5.30;3.03;;;13.50;99.90;;;;;;5053752;28;20423;-65
2021/08/04 02:50:05;;;;;;;2.30;2.00;;;13.50;99.90;;;;;;5053824;28;20802;-68
2021/08/04 02:52:33;;;;;;;5.17;2.97;;;13.50;99.90;;;;;;5053505;28;20408;-66
2021/08/04 02:54:58;;;;;;;2.90;2.40;;;13.60;99.90;;;;;;5053338;28;20789;-67
2021/08/04 02:57:25;;;;;;;1.80;1.70;;;13.60;99.90;;;;;;5053411;28;20412;-67
2021/08/04 02:59:51;;;;;;;2.73;2.33;;;13.70;99.90;;;;;;5053391;28;20190;-68
2021/08/04 03:02:17;;;;;;;5.30;2.50;;;13.70;99.90;;;;;;5053426;28;20419;-68
2021/08/04 03:04:42;;;;;;;2.97;2.50;;;13.60;99.90;;;;;;5053263;28;20170;-68
2021/08/04 03:07:08;;;;;;;1.83;1.70;;;13.70;99.90;;;;;;5053332;28;20208;-68
2021/08/04 03:09:33;;;;;;;2.90;1.73;;;13.70;99.90;;;;;;5053236;28;20577;-66
2021/08/04 03:11:59;;;;;;;2.10;1.90;;;13.80;99.90;;;;;;5053321;28;20535;-69
2021/08/04 03:14:25;;;;;;;2.03;1.83;;;13.90;99.90;;;;;;5053088;28;20247;-68
2021/08/04 03:16:51;;;;;;;1.67;1.57;;;13.90;99.90;;;;;;5052149;28;20440;-67
2021/08/04 03:19:16;;;;;;;2.60;2.20;;;13.80;99.90;;;;;;5053412;28;20589;-68
2021/08/04 03:21:42;;;;;;;2.13;1.73;;;13.80;99.90;;;;;;5053353;28;20197;-68
2021/08/04 03:24:08;;;;;;;2.97;2.40;;;13.80;99.90;;;;;;5052985;28;20199;-67
2021/08/04 03:26:34;;;;;;;2.83;1.87;;;13.80;99.90;;;;;;5053283;28;20234;-68
2021/08/04 03:28:59;;;;;;;7.43;2.40;;;13.80;99.90;;;;;;5053231;28;20562;-68
2021/08/04 03:31:25;;;;;;;3.07;2.67;;;13.90;99.90;;;;;;5052986;28;20436;-68
2021/08/04 03:33:51;;;;;;;2.60;2.10;;;13.90;99.90;;;;;;5052948;28;20558;-67
2021/08/04 03:36:17;;;;;;;2.50;2.30;;;13.90;99.90;;;;;;5053213;28;20533;-68
2021/08/04 03:38:42;;;;;;;2.90;2.57;;;13.90;99.90;;;;;;5053469;28;20531;-68
2021/08/04 03:41:08;;;;;;;3.67;2.30;;;13.90;99.90;;;;;;5056496;28;20188;-66
2021/08/04 03:43:33;;;;;;;2.60;2.23;;;13.90;99.90;;;;;;5056986;28;20205;-68
2021/08/04 03:45:59;;;;;;;3.70;2.20;;;13.90;99.90;;;;;;5057240;28;20209;-65
2021/08/04 03:48:25;;;;;;;2.73;2.53;;;14.00;99.90;;;;;;5057210;28;20178;-67
2021/08/04 03:50:50;;;;;;;2.67;2.47;;;14.00;99.90;;;;;;5057587;28;20197;-67
2021/08/04 03:53:16;;;;;;;2.50;2.17;;;14.00;99.90;;;;;;5056629;28;20717;-67
2021/08/04 03:55:42;;;;;;;4.70;2.57;;;14.00;99.90;;;;;;5057081;28;20224;-67
2021/08/04 03:58:07;;;;;;;6.30;3.00;;;14.00;99.90;;;;;;5056910;28;20171;-67
2021/08/04 04:00:33;;;;;;;3.83;2.10;;;14.00;99.90;;;;;;5055429;28;20240;-68
2021/08/04 04:02:59;;;;;;;2.37;2.17;;;13.90;99.90;;;;;;5056696;28;20223;-67
2021/08/04 04:05:24;;;;;;;2.60;2.40;;;14.00;99.90;;;;;;5056683;28;20180;-67
2021/08/04 04:07:50;;;;;;;3.40;3.10;;;14.00;99.90;;;;;;5056473;28;20185;-67
2021/08/04 04:10:16;;;;;;;3.00;2.27;;;14.00;99.90;;;;;;5056794;28;20190;-66
2021/08/04 04:12:41;;;;;;;3.00;2.50;;;13.90;99.90;;;;;;5056568;28;20244;-68
2021/08/04 04:15:07;;;;;;;3.00;2.47;;;13.90;99.90;;;;;;5056420;28;20247;-68
2021/08/04 04:17:33;;;;;;;3.43;1.90;;;13.80;99.90;;;;;;5056633;28;20181;-66
2021/08/04 04:19:59;;;;;;;2.80;2.07;;;13.80;99.90;;;;;;5055206;28;20972;-67
2021/08/04 04:22:25;;;;;;;2.70;1.97;;;13.80;99.90;;;;;;5056347;28;20171;-68
2021/08/04 04:24:50;;;;;;;2.80;2.27;;;13.70;99.90;;;;;;5056211;28;20937;-68
2021/08/04 04:27:16;;;;;;;4.07;2.27;;;13.70;99.90;;;;;;5056525;28;20182;-66
2021/08/04 04:29:42;;;;;;;3.30;2.70;;;13.80;99.90;;;;;;5056295;28;20173;-67
2021/08/04 04:32:09;;;;;;;3.73;2.20;;;13.80;99.90;;;;;;5056204;28;20432;-66
2021/08/04 04:34:35;;;;;;;3.30;2.27;;;13.80;99.90;;;;;;5055918;28;20202;-67
2021/08/04 04:37:01;;;;;;;2.43;2.23;;;13.80;99.90;;;;;;5056062;28;20766;-68
2021/08/04 04:39:26;;;;;;;2.60;2.40;;;13.80;99.90;;;;;;5056434;28;20480;-66
2021/08/04 04:41:53;;;;;;;2.63;2.43;;;13.90;99.90;;;;;;5055949;28;20232;-67
2021/08/04 04:44:19;;;;;;;3.67;2.50;;;14.00;99.90;;;;;;5055786;28;20170;-65
2021/08/04 04:46:44;;;;;;;3.83;2.20;;;14.00;99.90;;;;;;5056004;28;20419;-67
2021/08/04 04:49:10;;;;;;;3.50;3.20;;;14.10;99.90;;;;;;5056494;28;20227;-68
2021/08/04 04:51:36;;;;;;;2.63;2.30;;;14.20;99.90;;;;;;5055714;28;20435;-67
2021/08/04 04:54:02;;;;;;;3.10;2.80;;;14.10;99.90;;;;;;5055468;28;20902;-67
2021/08/04 04:56:27;;;;;;;2.63;1.77;;;14.10;99.90;;;;;;5055958;28;20181;-67
2021/08/04 04:58:54;;;;;;;2.47;2.20;;;14.00;99.90;;;;;;5055790;28;20340;-66
2021/08/04 05:01:20;;;;;;;2.27;2.00;;;14.10;99.90;;;;;;5055528;28;20236;-67
2021/08/04 05:03:46;;;;;;;2.40;2.20;;;14.20;99.90;;;;;;5055404;28;20898;-66
2021/08/04 05:06:11;;;;;;;2.50;2.10;;;14.20;99.90;;;;;;5055532;28;20415;-66
2021/08/04 05:08:37;;;;;;;3.07;1.80;;;14.20;99.90;;;;;;5055404;28;20196;-67
2021/08/04 05:11:03;;;;;;;4.10;2.83;;;14.20;99.90;;;;;;5055417;28;20553;-66
2021/08/04 05:13:28;;;;;;;2.70;2.50;;;14.40;99.90;;;;;;5055153;28;20674;-67
2021/08/04 05:15:54;;;;;;;3.33;3.03;;;14.50;99.90;;;;;;5055584;28;20454;-67
2021/08/04 05:18:20;;;;;;;2.67;2.20;;;14.60;99.90;;;;;;5055489;28;20246;-67
2021/08/04 05:20:45;;;;;;;3.30;2.87;;;14.70;99.90;;;;;;5055160;28;20190;-65
2021/08/04 05:23:11;;;;;;;3.13;2.67;;;14.80;99.90;;;;;;5055309;28;20292;-67
2021/08/04 05:25:38;;;;;;;2.97;2.20;;;15.00;99.90;;;;;;5055381;28;20165;-67
2021/08/04 05:28:04;;;;;;;4.60;2.50;;;15.10;99.90;;;;;;5055325;28;20249;-67
2021/08/04 05:30:30;;;;;;;2.90;2.20;;;15.20;99.90;;;;;;5055122;28;20425;-67
2021/08/04 05:32:56;;;;;;;3.27;2.97;;;15.20;99.90;;;;;;5054966;28;20407;-68
2021/08/04 05:35:21;;;;;;;3.20;2.60;;;15.30;99.90;;;;;;5054799;28;20253;-66
2021/08/04 05:37:47;;;;;;;3.43;3.20;;;15.40;99.90;;;;;;5054914;28;20170;-66
2021/08/04 05:40:13;;;;;;;3.43;3.13;;;15.50;99.90;;;;;;5054872;28;20187;-66
2021/08/04 05:42:39;;;;;;;3.90;2.60;;;15.60;99.90;;;;;;5054879;28;20510;-67
2021/08/04 05:45:05;;;;;;;4.03;3.03;;;15.70;99.90;;;;;;5054636;28;20463;-68
2021/08/04 05:47:31;;;;;;;2.00;1.80;;;16.00;99.90;;;;;;5054903;28;20221;-67
2021/08/04 05:49:57;;;;;;;3.37;3.10;;;16.20;99.90;;;;;;5054664;28;20819;-67
2021/08/04 05:52:22;;;;;;;6.13;3.00;;;16.40;99.90;;;;;;5054700;28;20635;-67
2021/08/04 05:54:48;;;;;;;2.57;2.37;;;16.50;99.80;;;;;;5054491;28;20194;-68
2021/08/04 05:57:13;;;;;;;4.13;2.20;;;16.50;99.50;;;;;;5054672;28;20603;-68
2021/08/04 05:59:39;;;;;;;4.00;3.70;;;16.60;99.60;;;;;;5054880;28;20170;-67
2021/08/04 06:02:06;;;;;;;4.80;3.97;;;16.70;99.40;;;;;;5052813;28;20170;-67
2021/08/04 06:04:31;;;;;;;3.60;3.30;;;16.90;99.60;;;;;;5054314;28;20170;-65
2021/08/04 06:06:57;;;;;;;3.77;2.23;;;16.90;99.50;;;;;;5054411;28;20407;-68
2021/08/04 06:09:22;;;;;;;2.40;1.80;;;17.00;99.20;;;;;;5054392;28;20194;-65
2021/08/04 06:11:48;;;;;;;2.50;2.07;;;17.10;98.50;;;;;;5054310;28;20194;-66
2021/08/04 06:14:14;;;;;;;2.40;2.20;;;17.10;98.10;;;;;;5054158;28;20198;-68
2021/08/04 06:16:39;;;;;;;3.60;2.33;;;17.20;99.10;;;;;;5054362;28;20519;-66
2021/08/04 06:19:05;;;;;;;6.80;3.23;;;17.20;98.30;;;;;;5054434;28;20162;-67
2021/08/04 06:21:31;;;;;;;3.43;2.87;;;17.20;98.40;;;;;;5054086;28;20663;-66
2021/08/04 06:23:56;;;;;;;3.03;2.73;;;17.20;98.00;;;;;;5053915;28;20170;-66
2021/08/04 06:26:22;;;;;;;3.10;2.80;;;17.30;97.80;;;;;;5054137;28;20166;-68
2021/08/04 06:28:50;;;;;;;3.60;3.30;;;17.50;98.80;;;;;;5054196;28;20563;-66
2021/08/04 06:31:16;;;;;;;2.33;2.20;;;17.80;97.70;;;;;;5053927;28;20190;-67
2021/08/04 06:33:42;;;;;;;3.23;3.03;;;18.10;97.10;;;;;;5054125;28;20995;-68
2021/08/04 06:36:08;;;;;;;2.07;1.97;;;18.20;97.20;;;;;;5053896;28;20397;-67
2021/08/04 06:38:33;;;;;;;4.40;2.20;;;18.50;97.20;;;;;;5053813;28;20637;-67
2021/08/04 06:40:59;;;;;;;3.77;2.70;;;18.70;97.80;;;;;;5053963;28;20675;-68
2021/08/04 06:43:25;;;;;;;2.73;2.37;;;18.80;96.50;;;;;;5053645;28;20227;-67
2021/08/04 06:45:51;;;;;;;3.93;2.63;;;18.80;96.50;;;;;;5054005;28;20536;-68
2021/08/04 06:48:16;;;;;;;2.30;2.03;;;18.90;97.20;;;;;;5053780;28;20174;-66
2021/08/04 06:50:42;;;;;;;1.93;1.83;;;18.90;96.60;;;;;;5053973;28;20765;-68
2021/08/04 06:53:08;;;;;;;1.70;1.60;;;19.00;97.10;;;;;;5053845;28;20167;-67
2021/08/04 06:55:33;;;;;;;2.10;1.90;;;18.90;96.50;;;;;;5053620;28;20254;-65
2021/08/04 06:57:59;;;;;;;1.73;1.63;;;19.00;96.20;;;;;;5053732;28;20204;-67
2021/08/04 07:00:25;;;;;;;2.30;1.90;;;19.00;96.00;;;;;;5053614;28;20192;-68
2021/08/04 07:02:51;;;;;;;1.77;1.67;;;19.00;95.80;;;;;;5053495;28;20168;-68
2021/08/04 07:05:17;;;;;;;2.17;1.97;;;19.00;96.60;;;;;;5053389;28;20401;-67
2021/08/04 07:07:44;;;;;;;3.33;1.00;;;19.30;95.80;;;;;;5053515;28;20663;-66
2021/08/04 07:10:10;;;;;;;1.60;1.50;;;19.30;95.00;;;;;;5053649;28;20891;-67
2021/08/04 07:12:36;;;;;;;1.60;1.50;;;19.10;94.70;;;;;;5053387;28;20823;-66
2021/08/04 07:15:02;;;;;;;2.60;1.90;;;19.00;95.00;;;;;;5052214;28;20454;-67
2021/08/04 07:17:27;;;;;;;1.90;1.80;;;19.20;95.00;;;;;;5053456;28;20639;-67
2021/08/04 07:19:53;;;;;;;2.27;1.77;;;19.20;95.40;;;;;;5053627;28;20197;-66
2021/08/04 07:22:19;;;;;;;2.23;2.13;;;19.30;95.60;;;;;;5053421;28;20628;-68
2021/08/04 07:24:44;;;;;;;1.77;1.43;;;19.40;94.90;;;;;;5053350;28;20629;-67
2021/08/04 07:27:10;;;;;;;2.23;1.47;;;19.40;94.50;;;;;;5053163;28;20176;-68
2021/08/04 07:29:35;;;;;;;1.90;1.80;;;19.40;94.70;;;;;;5053321;28;20537;-67
2021/08/04 07:32:01;;;;;;;1.93;1.73;;;19.30;95.50;;;;;;5053220;28;20187;-66
2021/08/04 07:34:27;;;;;;;2.23;1.40;;;19.30;95.60;;;;;;5052997;28;20286;-66
2021/08/04 07:36:53;;;;;;;3.47;2.03;;;19.30;94.90;;;;;;5053242;28;20491;-68
2021/08/04 07:39:20;;;;;;;1.40;1.30;;;19.40;95.00;;;;;;5053259;28;20177;-68
2021/08/04 07:41:45;;;;;;;1.33;1.23;;;19.40;94.50;;;;;;5053102;28;20188;-67
2021/08/04 07:44:11;;;;;;;1.47;1.13;;;19.30;94.50;;;;;;5052993;28;20423;-68
2021/08/04 07:46:37;;;;;;;1.53;1.40;;;19.20;94.50;;;;;;5053026;28;20410;-67
2021/08/04 07:49:03;;;;;;;1.67;1.20;;;19.30;94.20;;;;;;5053097;28;20180;-67
2021/08/04 07:51:28;;;;;;;3.03;1.17;;;19.40;94.60;;;;;;5052929;28;20193;-66
2021/08/04 07:53:54;;;;;;;1.33;1.23;;;19.40;93.80;;;;;;5052758;28;20198;-66
2021/08/04 07:56:22;;;;;;;1.30;1.20;;;19.50;93.30;;;;;;5053181;28;20253;-67
2021/08/04 07:58:49;;;;;;;1.47;1.33;;;19.70;95.00;;;;;;5053113;28;20164;-68
2021/08/04 08:01:15;;;;;;;1.00;1.00;;;20.00;96.10;;;;;;5052921;28;20438;-66
2021/08/04 08:03:40;;;;;;;1.50;1.40;;;20.20;93.10;;;;;;5052779;28;20890;-68
2021/08/04 08:06:06;;;;;;;1.10;1.10;;;20.30;94.70;;;;;;5053119;28;20181;-67
2021/08/04 08:08:32;;;;;;;3.23;1.43;;;20.60;94.20;;;;;;5052821;28;20199;-66
2021/08/04 08:10:57;;;;;;;2.07;1.80;;;20.60;92.70;;;;;;5052921;28;20204;-68
2021/08/04 08:13:23;;;;;;;1.73;1.63;;;20.90;92.60;;;;;;5052553;28;20208;-68
2021/08/04 08:15:49;;;;;;;1.97;1.87;;;20.50;92.30;;;;;;5052831;28;20184;-68
2021/08/04 08:18:15;;;;;;;1.73;1.47;;;20.20;92.90;;;;;;5053001;28;20176;-66
2021/08/04 08:20:41;;;;;;;2.70;1.70;;;20.10;93.50;;;;;;5053313;28;20908;-66
2021/08/04 08:23:09;;;;;;;1.90;1.27;;;20.10;94.40;;;;;;5052727;28;20467;-67
2021/08/04 08:25:35;;;;;;;1.50;1.40;;;20.20;92.70;;;;;;5053483;28;20407;-67
2021/08/04 08:28:01;;;;;;;1.67;1.57;;;20.20;93.10;;;;;;5056362;28;20790;-67
2021/08/04 08:30:27;;;;;;;1.57;1.33;;;19.90;92.30;;;;;;5056265;28;20438;-68
2021/08/04 08:32:53;;;;;;;6.67;1.63;;;19.80;92.40;;;;;;5056338;28;20444;-69
2021/08/04 08:35:20;;;;;;;1.40;1.30;;;20.00;93.10;;;;;;5056118;28;20205;-67
2021/08/04 08:37:47;;;;;;;2.23;1.37;;;20.30;92.40;;;;;;5056344;28;20403;-67
2021/08/04 08:40:14;;;;;;;1.60;1.30;;;20.40;91.70;;;;;;5056252;28;20439;-68
2021/08/04 08:42:42;;;;;;;1.73;1.37;;;20.50;92.00;;;;;;5056017;28;20403;-69
2021/08/04 08:45:10;;;;;;;2.23;1.53;;;20.70;92.20;;;;;;5055872;28;20387;-66
2021/08/04 08:47:38;;;;;;;1.30;1.20;;;20.60;91.50;;;;;;5055997;28;20412;-68
2021/08/04 08:50:04;;;;;;;2.07;1.80;;;20.50;91.50;;;;;;5055980;28;20478;-66
2021/08/04 08:52:30;;;;;;;4.00;1.67;;;20.20;92.10;;;;;;5055903;28;20416;-66
2021/08/04 08:55:00;;;;;;;1.83;1.63;;;20.00;92.00;;;;;;5055543;28;20465;-68
2021/08/04 08:57:25;;;;;;;2.07;1.60;;;19.90;92.70;;;;;;5055806;28;20167;-66
2021/08/04 08:59:52;;;;;;;2.30;1.43;;;20.50;92.90;;;;;;5055933;28;20424;-67
2021/08/04 09:02:17;;;;;;;2.17;1.30;;;20.90;91.30;;;;;;5055824;28;20208;-67
2021/08/04 09:05:05;;;;;;;1.70;1.60;;;21.10;91.30;;;;;;5055438;28;20404;-67
2021/08/04 09:07:36;;;;;;;1.90;1.73;;;21.20;90.80;;;;;;5055786;28;20678;-69
2021/08/04 09:10:23;;;;;;;2.20;1.80;;;21.20;92.90;;;;;;5055493;28;20440;-69
2021/08/04 09:12:50;;;;;;;1.90;1.70;;;21.30;91.30;;;;;;5055512;28;20420;-69
2021/08/04 09:15:25;;;;;;;2.03;1.57;;;21.20;91.10;;;;;;5055359;28;20475;-68
2021/08/04 09:18:20;;;;;;;1.20;1.13;;;21.10;91.00;;;;;;5055551;28;20404;-68
2021/08/04 09:20:52;;;;;;;1.73;1.63;;;21.30;92.40;;;;;;5042509;28;20441;-69
2021/08/04 09:23:20;;;;;;;1.63;1.53;;;21.40;91.60;;;;;;5055422;28;20431;-68
2021/08/04 09:26:08;;;;;;;1.30;1.20;;;21.40;91.10;;;;;;5055495;28;20765;-67
2021/08/04 09:29:11;;;;;;;1.70;1.60;;;21.30;90.40;;;;;;5055476;28;20405;-69
2021/08/04 09:31:40;;;;;;;1.90;1.57;;;21.30;91.30;;;;;;5055155;28;20523;-69
2021/08/04 09:34:35;;;;;;;1.27;1.10;;;21.10;91.10;;;;;;5055025;28;20539;-67
2021/08/04 09:37:09;;;;;;;2.50;1.57;;;21.20;90.60;;;;;;5054873;28;20397;-67
2021/08/04 09:39:57;;;;;;;1.43;1.33;;;21.30;90.50;;;;;;5055354;28;20403;-67
2021/08/04 09:42:40;;;;;;;1.63;1.20;;;21.30;89.90;;;;;;5054980;28;20952;-66
2021/08/04 09:45:07;;;;;;;1.63;1.53;;;21.00;88.60;;;;;;5054791;28;20399;-66
2021/08/04 09:47:33;;;;;;;1.57;1.33;;;21.00;90.20;;;;;;5055127;28;20399;-68
2021/08/04 09:50:07;;;;;;;1.53;1.43;;;21.10;90.60;;;;;;5054801;28;20427;-67
2021/08/04 09:52:33;;;;;;;2.80;1.13;;;21.10;92.50;;;;;;5054911;28;20479;-66
2021/08/04 09:55:15;;;;;;;1.60;1.40;;;21.30;90.80;;;;;;5054674;28;20429;-66
2021/08/04 09:57:47;;;;;;;1.67;1.13;;;21.30;90.60;;;;;;5054898;28;20924;-67
2021/08/04 10:00:15;;;;;;;1.50;1.03;;;21.20;90.70;;;;;;5054802;28;20428;-67
2021/08/04 10:02:44;;;;;;;2.50;1.30;;;21.00;89.30;;;;;;5054846;28;20408;-69
2021/08/04 10:05:26;;;;;;;2.53;1.40;;;21.00;91.40;;;;;;5054517;28;20975;-69
2021/08/04 10:08:01;;;;;;;1.40;1.20;;;20.80;90.40;;;;;;5054529;28;20793;-67
2021/08/04 10:10:31;;;;;;;1.27;1.13;;;20.70;89.70;;;;;;5054374;28;20834;-69
2021/08/04 10:12:59;;;;;;;1.43;1.30;;;20.60;89.50;;;;;;5054585;28;20436;-69
2021/08/04 10:15:26;;;;;;;1.53;1.43;;;20.40;89.60;;;;;;5054173;28;20462;-66
2021/08/04 10:17:52;;;;;;;1.27;1.27;;;20.30;90.90;;;;;;5054445;28;20407;-66
2021/08/04 10:20:18;;;;;;;1.53;1.17;;;20.30;90.40;;;;;;5054310;28;20431;-68
2021/08/04 10:22:44;;;;;;;1.10;1.00;;;20.30;90.60;;;;;;5054118;28;20499;-66
2021/08/04 10:25:10;;;;;;;2.57;2.20;;;20.10;90.50;;;;;;5053983;28;20405;-67
2021/08/04 10:27:36;;;;;;;1.40;1.30;;;20.10;91.00;;;;;;5053875;28;20506;-66
2021/08/04 10:30:03;;;;;;;1.43;1.30;;;20.10;91.80;;;;;;5052829;28;20784;-67
2021/08/04 10:32:29;;;;;;;1.00;1.00;;;20.00;91.00;;;;;;5053943;28;20490;-68
2021/08/04 10:34:57;;;;;;;1.57;1.47;;;19.90;91.20;;;;;;5053693;28;20462;-67
2021/08/04 10:37:24;;;;;;;2.03;1.30;;;20.00;93.20;;;;;;5053910;28;20403;-68
2021/08/04 10:39:51;;;;;;;1.53;1.43;;;20.10;92.00;;;;;;5053971;28;20969;-68
2021/08/04 10:42:16;;;;;;;1.70;1.60;;;19.90;91.40;;;;;;5053571;28;20444;-69
2021/08/04 10:44:44;;;;;;;1.50;1.30;;;19.90;92.10;;;;;;5053413;28;20441;-68
2021/08/04 10:47:26;;;;;;;1.60;1.50;;;19.90;92.90;;;;;;5053907;28;20268;-67
2021/08/04 10:50:12;;;;;;;1.47;1.37;;;19.90;91.70;;;;;;5053454;28;20426;-69
2021/08/04 10:52:57;;;;;;;1.63;1.53;;;19.80;92.20;;;;;;5053745;28;20469;-68
2021/08/04 10:55:27;;;;;;;2.23;1.50;;;19.60;92.20;;;;;;5053339;28;20462;-68
2021/08/04 10:58:05;;;;;;;1.13;1.03;;;19.40;92.10;;;;;;5053709;28;20510;-68
2021/08/04 11:00:32;;;;;;;2.00;1.30;;;19.60;92.80;;;;;;5053447;28;20430;-66
2021/08/04 11:02:58;;;;;;;1.37;1.27;;;19.60;92.70;;;;;;5053587;28;20543;-66
2021/08/04 11:05:24;;;;;;;1.40;1.27;;;19.60;92.40;;;;;;5053317;28;20947;-68
2021/08/04 11:08:18;;;;;;;1.57;1.47;;;19.50;92.20;;;;;;5053401;28;20417;-68
2021/08/04 11:10:45;;;;;;;1.10;1.00;;;19.70;92.80;;;;;;5053495;28;20431;-68
2021/08/04 11:13:11;;;;;;;2.30;1.63;;;19.80;92.40;;;;;;5053394;28;20403;-67
2021/08/04 11:15:37;;;;;;;1.57;1.47;;;19.90;92.20;;;;;;5052134;28;20439;-69
2021/08/04 11:18:13;;;;;;;1.50;1.40;;;20.00;92.10;;;;;;5053525;28;20255;-69
2021/08/04 11:21:11;;;;;;;1.63;1.53;;;20.10;92.40;;;;;;5053441;28;20562;-68
2021/08/04 11:23:45;;;;;;;1.63;1.37;;;19.70;92.30;;;;;;5053239;28;20446;-68
2021/08/04 11:26:33;;;;;;;1.40;1.30;;;19.60;92.00;;;;;;5053328;28;20494;-67
2021/08/04 11:28:59;;;;;;;1.50;1.40;;;19.60;93.40;;;;;;5053390;28;20410;-68
2021/08/04 11:31:25;;;;;;;1.93;1.60;;;19.50;92.10;;;;;;5053174;28;20505;-68
2021/08/04 11:33:51;;;;;;;1.70;1.60;;;19.40;92.50;;;;;;5053036;28;20938;-66
2021/08/04 11:36:26;;;;;;;1.50;1.40;;;19.60;93.10;;;;;;5053122;28;20688;-68
2021/08/04 11:38:54;;;;;;;2.10;1.87;;;19.70;92.90;;;;;;5053267;28;20401;-69
2021/08/04 11:41:28;;;;;;;1.57;0.93;;;19.50;93.00;;;;;;5052950;28;20427;-68
2021/08/04 11:43:59;;;;;;;1.70;1.57;;;19.40;93.20;;;;;;5052862;28;20903;-68
2021/08/04 11:46:46;;;;;;;1.70;1.60;;;19.50;93.40;;;;;;5053035;28;20411;-68
2021/08/04 11:49:31;;;;;;;2.23;1.33;;;19.40;93.50;;;;;;5053239;28;20773;-68
2021/08/04 11:52:05;;;;;;;2.00;1.40;;;19.60;94.10;;;;;;5052959;28;20396;-68
2021/08/04 11:54:52;;;;;;;1.80;1.70;;;19.60;93.60;;;;;;5052867;28;20458;-67
2021/08/04 11:57:36;;;;;;;1.57;1.47;;;19.70;93.80;;;;;;5053181;28;20402;-68
2021/08/04 12:00:07;;;;;;;1.60;1.50;;;19.70;94.10;;;;;;5053005;28;20424;-67
2021/08/04 12:02:35;;;;;;;2.00;1.80;;;19.90;94.10;;;;;;5056662;28;20595;-69
2021/08/04 12:05:02;;;;;;;1.80;1.70;;;20.00;93.60;;;;;;5056665;28;20447;-66
2021/08/04 12:07:32;;;;;;;3.23;1.37;;;20.10;93.10;;;;;;5056779;28;20423;-68
2021/08/04 12:09:59;;;;;;;1.87;1.67;;;20.10;94.10;;;;;;5056550;28;20458;-67
2021/08/04 12:12:35;;;;;;;1.57;1.47;;;19.90;93.70;;;;;;5056623;28;20410;-68
2021/08/04 12:15:02;;;;;;;3.50;1.47;;;19.80;93.90;;;;;;5056393;28;20459;-69
2021/08/04 12:17:34;;;;;;;2.43;1.90;;;19.70;94.20;;;;;;5056523;28;20814;-66
2021/08/04 12:20:30;;;;;;;1.67;1.57;;;19.70;94.10;;;;;;5056377;28;20510;-66
2021/08/04 12:23:04;;;;;;;1.60;1.50;;;19.70;94.10;;;;;;5044157;28;20414;-66
2021/08/04 12:25:35;;;;;;;2.43;1.73;;;19.50;94.00;;;;;;5056352;28;20495;-68
2021/08/04 12:28:02;;;;;;;2.27;1.47;;;19.40;94.70;;;;;;5056349;28;20425;-67
2021/08/04 12:30:43;;;;;;;1.30;1.20;;;19.40;95.10;;;;;;5056184;28;20440;-68
2021/08/04 12:33:18;;;;;;;2.83;1.83;;;19.30;94.70;;;;;;5056342;28;20465;-67
2021/08/04 12:35:50;;;;;;;1.97;1.40;;;19.30;94.70;;;;;;5056404;28;20403;-67
2021/08/04 12:38:20;;;;;;;1.73;1.63;;;19.30;95.00;;;;;;5056320;28;20930;-68
2021/08/04 12:40:53;;;;;;;1.63;1.33;;;19.10;95.40;;;;;;5056121;28;20545;-67
2021/08/04 12:43:19;;;;;;;2.10;1.80;;;19.10;95.50;;;;;;5056091;28;20410;-67
2021/08/04 12:45:46;;;;;;;1.73;1.63;;;19.00;95.40;;;;;;5056150;28;20872;-69
2021/08/04 12:48:13;;;;;;;2.80;1.80;;;18.80;95.80;;;;;;5056072;28;20405;-68
2021/08/04 12:50:58;;;;;;;2.47;1.83;;;18.80;95.30;;;;;;5055945;28;20430;-68
2021/08/04 12:53:35;;;;;;;2.17;1.97;;;18.90;96.40;;;;;;5055794;28;20421;-68
2021/08/04 12:56:02;;;;;;;2.03;1.80;;;19.00;96.50;;;;;;5055938;28;20411;-66